createdAt,value
2016-08-03T00:00:45.394Z,23.48
2016-08-03T00:01:45.397Z,23.51
2016-08-03T00:02:46.117Z,23.54
2016-08-03T00:03:45.410Z,23.5
2016-08-03T00:04:44.729Z,23.53
2016-08-03T00:05:45.421Z,23.46
2016-08-03T00:06:47.257Z,23.38
2016-08-03T00:07:45.430Z,23.5
2016-08-03T00:08:46.244Z,23.39
2016-08-03T00:09:45.439Z,23.51
2016-08-03T00:10:45.442Z,23.51
2016-08-03T00:11:46.158Z,23.43
2016-08-03T00:12:44.798Z,23.47
2016-08-03T00:13:44.786Z,23.48
2016-08-03T00:14:45.466Z,23.38
2016-08-03T00:15:45.472Z,23.46
2016-08-03T00:16:44.768Z,23.42
2016-08-03T00:17:46.913Z,23.54
2016-08-03T00:18:44.781Z,23.55
2016-08-03T00:20:45.543Z,23.4
2016-08-03T00:21:45.503Z,23.28
2016-08-03T00:22:44.796Z,23.46
2016-08-03T00:23:46.219Z,23.5
2016-08-03T00:24:59.700Z,23.53
2016-08-03T00:25:45.523Z,23.55
2016-08-03T00:26:46.243Z,23.51
2016-08-03T00:27:45.532Z,23.47
2016-08-03T00:28:47.346Z,23.51
2016-08-03T00:29:45.541Z,23.53
2016-08-03T00:30:46.254Z,23.51
2016-08-03T00:31:46.265Z,23.57
2016-08-03T00:32:45.566Z,23.46
2016-08-03T00:33:46.287Z,23.4
2016-08-03T00:34:44.962Z,23.42
2016-08-03T00:35:46.282Z,23.35
2016-08-03T00:36:46.289Z,23.35
2016-08-03T00:37:46.293Z,23.32
2016-08-03T00:38:44.881Z,23.43
2016-08-03T00:39:47.425Z,23.42
2016-08-03T00:40:45.601Z,23.48
2016-08-03T00:41:46.457Z,23.5
2016-08-03T00:42:46.321Z,23.51
2016-08-03T00:43:44.938Z,23.43
2016-08-03T00:44:46.327Z,23.51
2016-08-03T00:45:45.633Z,23.57
2016-08-03T00:46:45.628Z,23.6
2016-08-03T00:47:46.346Z,23.7
2016-08-03T00:48:45.647Z,23.61
2016-08-03T00:49:46.353Z,23.5
2016-08-03T00:50:45.654Z,23.6
2016-08-03T00:51:44.953Z,23.63
2016-08-03T00:52:46.819Z,23.57
2016-08-03T00:53:46.380Z,23.57
2016-08-03T00:55:01.900Z,23.61
2016-08-03T00:55:45.680Z,23.51
2016-08-03T00:56:45.686Z,23.53
2016-08-03T00:57:45.688Z,23.51
2016-08-03T00:58:45.477Z,23.55
2016-08-03T00:59:45.143Z,23.5
2016-08-03T01:00:45.709Z,23.5
2016-08-03T01:01:47.349Z,23.55
2016-08-03T01:02:46.424Z,23.51
2016-08-03T01:03:46.880Z,23.61
2016-08-03T01:04:45.024Z,23.55
2016-08-03T01:05:45.736Z,23.51
2016-08-03T01:06:45.746Z,23.57
2016-08-03T01:07:45.036Z,23.53
2016-08-03T01:08:46.455Z,23.54
2016-08-03T01:09:45.047Z,23.5
2016-08-03T01:10:46.469Z,23.58
2016-08-03T01:11:45.769Z,23.55
2016-08-03T01:12:45.774Z,23.54
2016-08-03T01:14:46.077Z,23.55
2016-08-03T01:15:46.501Z,23.6
2016-08-03T01:16:45.798Z,23.65
2016-08-03T01:17:46.504Z,23.58
2016-08-03T01:18:45.851Z,23.55
2016-08-03T01:19:45.104Z,23.65
2016-08-03T01:20:46.521Z,23.61
2016-08-03T01:21:45.818Z,23.55
2016-08-03T01:22:45.826Z,23.51
2016-08-03T01:23:47.205Z,23.54
2016-08-03T01:24:46.594Z,23.55
2016-08-03T01:25:46.853Z,23.53
2016-08-03T01:26:45.847Z,23.48
2016-08-03T01:27:46.557Z,23.54
2016-08-03T01:28:45.856Z,23.54
2016-08-03T01:29:46.578Z,23.47
2016-08-03T01:30:45.867Z,23.53
2016-08-03T01:31:45.871Z,23.54
2016-08-03T01:32:45.879Z,23.4
2016-08-03T01:33:45.883Z,23.5
2016-08-03T01:34:47.172Z,23.48
2016-08-03T01:35:45.237Z,23.38
2016-08-03T01:36:45.991Z,23.42
2016-08-03T01:37:46.608Z,23.38
2016-08-03T01:38:45.911Z,23.39
2016-08-03T01:39:46.626Z,23.43
2016-08-03T01:40:45.920Z,23.51
2016-08-03T01:41:45.925Z,23.48
2016-08-03T01:42:46.638Z,23.55
2016-08-03T01:43:45.230Z,23.51
2016-08-03T01:44:45.940Z,23.53
2016-08-03T01:45:47.781Z,23.42
2016-08-03T01:46:45.948Z,23.42
2016-08-03T01:47:46.864Z,23.39
2016-08-03T01:48:45.256Z,23.47
2016-08-03T01:49:45.978Z,23.39
2016-08-03T01:50:46.679Z,23.47
2016-08-03T01:51:45.975Z,23.43
2016-08-03T01:52:46.690Z,23.55
2016-08-03T01:53:46.692Z,23.57
2016-08-03T01:54:46.700Z,23.61
2016-08-03T01:55:45.288Z,23.55
2016-08-03T01:56:47.933Z,23.53
2016-08-03T01:57:46.013Z,23.57
2016-08-03T01:58:46.669Z,23.5
2016-08-03T01:59:46.024Z,23.51
2016-08-03T02:00:45.332Z,23.55
2016-08-03T02:01:46.735Z,23.58
2016-08-03T02:02:46.033Z,23.55
2016-08-03T02:03:46.042Z,23.57
2016-08-03T02:04:46.757Z,23.48
2016-08-03T02:05:45.340Z,23.54
2016-08-03T02:06:46.054Z,23.58
2016-08-03T02:07:48.037Z,23.55
2016-08-03T02:08:46.066Z,23.58
2016-08-03T02:09:46.975Z,23.6
2016-08-03T02:10:46.085Z,23.58
2016-08-03T02:11:45.377Z,23.51
2016-08-03T02:12:46.795Z,23.46
2016-08-03T02:13:46.092Z,23.48
2016-08-03T02:14:46.113Z,23.43
2016-08-03T02:15:46.114Z,23.4
2016-08-03T02:16:46.824Z,23.42
2016-08-03T02:17:46.111Z,23.48
2016-08-03T02:18:45.469Z,23.57
2016-08-03T02:19:45.427Z,23.53
2016-08-03T02:20:47.100Z,23.54
2016-08-03T02:21:46.837Z,23.36
2016-08-03T02:22:46.846Z,23.4
2016-08-03T02:23:45.438Z,23.5
2016-08-03T02:24:46.149Z,23.39
2016-08-03T02:25:46.206Z,23.47
2016-08-03T02:26:45.450Z,23.42
2016-08-03T02:27:46.161Z,23.47
2016-08-03T02:28:46.170Z,23.51
2016-08-03T02:29:46.171Z,23.43
2016-08-03T02:30:45.473Z,23.46
2016-08-03T02:31:46.191Z,23.42
2016-08-03T02:32:46.904Z,23.39
2016-08-03T02:33:46.198Z,23.51
2016-08-03T02:34:46.202Z,23.47
2016-08-03T02:35:46.307Z,23.4
2016-08-03T02:36:46.970Z,23.43
2016-08-03T02:37:46.220Z,23.5
2016-08-03T02:38:46.930Z,23.46
2016-08-03T02:39:45.524Z,23.54
2016-08-03T02:40:46.940Z,23.4
2016-08-03T02:41:45.532Z,23.5
2016-08-03T02:42:46.243Z,23.51
2016-08-03T02:43:46.958Z,23.54
2016-08-03T02:44:46.962Z,23.39
2016-08-03T02:45:46.260Z,23.46
2016-08-03T02:46:46.261Z,23.46
2016-08-03T02:47:46.973Z,23.48
2016-08-03T02:48:47.282Z,23.54
2016-08-03T02:49:46.283Z,23.46
2016-08-03T02:50:46.283Z,23.51
2016-08-03T02:51:47.002Z,23.42
2016-08-03T02:52:47.001Z,23.51
2016-08-03T02:53:47.595Z,23.48
2016-08-03T02:54:47.018Z,23.54
2016-08-03T02:55:47.018Z,23.51
2016-08-03T02:56:47.025Z,23.51
2016-08-03T02:57:47.031Z,23.51
2016-08-03T02:58:47.047Z,23.53
2016-08-03T02:59:47.038Z,23.51
2016-08-03T03:00:47.045Z,23.47
2016-08-03T03:01:47.064Z,23.48
2016-08-03T03:02:45.946Z,23.42
2016-08-03T03:03:46.360Z,23.42
2016-08-03T03:04:47.673Z,23.47
2016-08-03T03:05:46.368Z,23.43
2016-08-03T03:06:46.372Z,23.42
2016-08-03T03:07:46.375Z,23.4
2016-08-03T03:08:47.091Z,23.46
2016-08-03T03:09:47.095Z,23.48
2016-08-03T03:10:45.684Z,23.51
2016-08-03T03:11:47.104Z,23.48
2016-08-03T03:12:47.107Z,23.51
2016-08-03T03:13:46.460Z,23.57
2016-08-03T03:14:46.410Z,23.47
2016-08-03T03:15:48.277Z,23.53
2016-08-03T03:16:45.725Z,23.46
2016-08-03T03:17:45.721Z,23.54
2016-08-03T03:18:47.143Z,23.51
2016-08-03T03:19:47.164Z,23.5
2016-08-03T03:20:47.152Z,23.53
2016-08-03T03:21:46.448Z,23.57
2016-08-03T03:22:47.155Z,23.54
2016-08-03T03:23:45.751Z,23.42
2016-08-03T03:24:49.071Z,23.43
2016-08-03T03:25:46.472Z,23.39
2016-08-03T03:26:47.587Z,23.36
2016-08-03T03:27:46.497Z,23.31
2016-08-03T03:28:46.488Z,23.46
2016-08-03T03:29:46.492Z,23.39
2016-08-03T03:30:45.791Z,23.39
2016-08-03T03:31:47.207Z,23.46
2016-08-03T03:32:47.209Z,23.42
2016-08-03T03:33:46.510Z,23.42
2016-08-03T03:34:47.225Z,23.43
2016-08-03T03:35:45.874Z,23.48
2016-08-03T03:36:47.343Z,23.5
2016-08-03T03:37:48.291Z,23.46
2016-08-03T03:38:46.541Z,23.39
2016-08-03T03:39:45.840Z,23.39
2016-08-03T03:40:46.548Z,23.46
2016-08-03T03:41:47.260Z,23.42
2016-08-03T03:42:47.318Z,23.46
2016-08-03T03:43:45.851Z,23.5
2016-08-03T03:44:45.861Z,23.43
2016-08-03T03:45:46.577Z,23.4
2016-08-03T03:46:46.583Z,23.47
2016-08-03T03:47:46.173Z,23.43
2016-08-03T03:48:46.591Z,23.42
2016-08-03T03:49:45.887Z,23.38
2016-08-03T03:50:47.305Z,23.42
2016-08-03T03:51:45.900Z,23.36
2016-08-03T03:52:46.608Z,23.4
2016-08-03T03:53:46.615Z,23.39
2016-08-03T03:54:47.329Z,23.36
2016-08-03T03:55:47.334Z,23.42
2016-08-03T03:56:46.627Z,23.36
2016-08-03T03:57:46.426Z,23.47
2016-08-03T03:58:47.347Z,23.39
2016-08-03T03:59:48.108Z,23.46
2016-08-03T04:00:45.946Z,23.46
2016-08-03T04:01:47.362Z,23.48
2016-08-03T04:02:46.661Z,23.4
2016-08-03T04:03:47.375Z,23.53
2016-08-03T04:04:47.374Z,23.57
2016-08-03T04:05:46.682Z,23.55
2016-08-03T04:06:45.978Z,23.51
2016-08-03T04:07:47.393Z,23.57
2016-08-03T04:08:47.543Z,23.53
2016-08-03T04:09:46.699Z,23.55
2016-08-03T04:10:47.418Z,23.51
2016-08-03T04:11:46.005Z,23.5
2016-08-03T04:12:46.011Z,23.48
2016-08-03T04:13:47.427Z,23.43
2016-08-03T04:14:47.438Z,23.46
2016-08-03T04:15:46.731Z,23.4
2016-08-03T04:16:46.737Z,23.48
2016-08-03T04:17:47.445Z,23.46
2016-08-03T04:18:46.041Z,23.53
2016-08-03T04:19:46.051Z,23.48
2016-08-03T04:20:47.569Z,23.46
2016-08-03T04:21:47.111Z,23.46
2016-08-03T04:22:46.767Z,23.47
2016-08-03T04:23:46.773Z,23.55
2016-08-03T04:24:47.487Z,23.48
2016-08-03T04:25:46.080Z,23.4
2016-08-03T04:26:46.791Z,23.43
2016-08-03T04:27:46.847Z,23.43
2016-08-03T04:28:46.104Z,23.39
2016-08-03T04:29:47.703Z,23.43
2016-08-03T04:30:47.393Z,23.39
2016-08-03T04:31:46.107Z,23.46
2016-08-03T04:32:47.792Z,23.43
2016-08-03T04:33:46.133Z,23.46
2016-08-03T04:34:47.538Z,23.54
2016-08-03T04:35:46.132Z,23.53
2016-08-03T04:36:46.893Z,23.43
2016-08-03T04:37:46.950Z,23.43
2016-08-03T04:38:46.852Z,23.39
2016-08-03T04:39:47.565Z,23.36
2016-08-03T04:40:47.618Z,23.46
2016-08-03T04:41:48.275Z,23.47
2016-08-03T04:42:46.875Z,23.51
2016-08-03T04:43:47.935Z,23.48
2016-08-03T04:44:46.902Z,23.47
2016-08-03T04:45:46.899Z,23.4
2016-08-03T04:46:46.190Z,23.42
2016-08-03T04:47:46.914Z,23.42
2016-08-03T04:48:46.908Z,23.43
2016-08-03T04:49:47.621Z,23.43
2016-08-03T04:50:46.917Z,23.43
2016-08-03T04:51:47.682Z,23.43
2016-08-03T04:52:48.535Z,23.51
2016-08-03T04:53:47.640Z,23.4
2016-08-03T04:54:47.442Z,23.43
2016-08-03T04:55:46.238Z,23.42
2016-08-03T04:56:48.201Z,23.47
2016-08-03T04:57:46.393Z,23.57
2016-08-03T04:58:46.964Z,23.5
2016-08-03T05:00:46.985Z,23.5
2016-08-03T05:01:47.737Z,23.48
2016-08-03T05:02:46.995Z,23.57
2016-08-03T05:03:47.962Z,23.58
2016-08-03T05:04:47.699Z,23.53
2016-08-03T05:05:48.407Z,23.46
2016-08-03T05:06:46.298Z,23.48
2016-08-03T05:07:47.012Z,23.53
2016-08-03T05:08:47.013Z,23.43
2016-08-03T05:09:47.723Z,23.38
2016-08-03T05:10:46.328Z,23.42
2016-08-03T05:11:47.739Z,23.36
2016-08-03T05:12:47.742Z,23.39
2016-08-03T05:13:46.336Z,23.31
2016-08-03T05:14:46.485Z,23.38
2016-08-03T05:15:47.050Z,23.4
2016-08-03T05:16:47.064Z,23.39
2016-08-03T05:17:47.764Z,23.39
2016-08-03T05:18:46.357Z,23.42
2016-08-03T05:19:47.069Z,23.38
2016-08-03T05:20:47.075Z,23.39
2016-08-03T05:21:47.080Z,23.31
2016-08-03T05:22:47.087Z,23.32
2016-08-03T05:23:47.091Z,23.33
2016-08-03T05:24:47.105Z,23.43
2016-08-03T05:25:48.781Z,23.43
2016-08-03T05:26:47.811Z,23.48
2016-08-03T05:27:48.811Z,23.5
2016-08-03T05:28:46.422Z,23.43
2016-08-03T05:29:47.838Z,23.46
2016-08-03T05:30:46.470Z,23.38
2016-08-03T05:31:47.842Z,23.53
2016-08-03T05:32:47.143Z,23.39
2016-08-03T05:33:46.438Z,23.38
2016-08-03T05:34:47.145Z,23.43
2016-08-03T05:35:46.446Z,23.42
2016-08-03T05:36:47.161Z,23.47
2016-08-03T05:37:46.458Z,23.42
2016-08-03T05:38:48.921Z,23.47
2016-08-03T05:39:47.226Z,23.39
2016-08-03T05:40:47.232Z,23.38
2016-08-03T05:41:47.944Z,23.4
2016-08-03T05:42:46.505Z,23.4
2016-08-03T05:43:46.495Z,23.46
2016-08-03T05:44:47.221Z,23.46
2016-08-03T05:45:46.503Z,23.42
2016-08-03T05:46:47.218Z,23.46
2016-08-03T05:47:47.424Z,23.43
2016-08-03T05:48:47.282Z,23.39
2016-08-03T05:49:46.524Z,23.39
2016-08-03T05:50:47.949Z,23.35
2016-08-03T05:51:46.536Z,23.36
2016-08-03T05:52:47.957Z,23.47
2016-08-03T05:53:47.258Z,23.48
2016-08-03T05:54:47.311Z,23.43
2016-08-03T05:55:47.973Z,23.48
2016-08-03T05:56:47.981Z,23.43
2016-08-03T05:57:47.988Z,23.46
2016-08-03T05:58:47.681Z,23.4
2016-08-03T05:59:48.004Z,23.46
2016-08-03T06:00:48.008Z,23.48
2016-08-03T06:01:47.296Z,23.5
2016-08-03T06:02:48.009Z,23.53
2016-08-03T06:03:47.311Z,23.42
2016-08-03T06:04:48.024Z,23.42
2016-08-03T06:05:47.319Z,23.42
2016-08-03T06:06:48.045Z,23.39
2016-08-03T06:07:46.628Z,23.42
2016-08-03T06:08:48.044Z,23.42
2016-08-03T06:09:47.650Z,23.42
2016-08-03T06:10:47.349Z,23.47
2016-08-03T06:11:49.433Z,23.43
2016-08-03T06:12:48.069Z,23.39
2016-08-03T06:13:46.655Z,23.42
2016-08-03T06:14:48.077Z,23.39
2016-08-03T06:15:47.422Z,23.32
2016-08-03T06:16:47.379Z,23.31
2016-08-03T06:17:47.391Z,23.39
2016-08-03T06:18:48.111Z,23.5
2016-08-03T06:19:47.396Z,23.53
2016-08-03T06:20:47.998Z,23.4
2016-08-03T06:21:48.171Z,23.39
2016-08-03T06:22:47.413Z,23.4
2016-08-03T06:23:48.125Z,23.31
2016-08-03T06:24:47.424Z,23.32
2016-08-03T06:25:48.135Z,23.42
2016-08-03T06:26:47.435Z,23.4
2016-08-03T06:27:47.439Z,23.39
2016-08-03T06:28:47.442Z,23.39
2016-08-03T06:29:47.452Z,23.38
2016-08-03T06:30:46.753Z,23.38
2016-08-03T06:31:48.058Z,23.46
2016-08-03T06:32:47.516Z,23.46
2016-08-03T06:33:48.181Z,23.43
2016-08-03T06:34:48.237Z,23.38
2016-08-03T06:35:48.189Z,23.46
2016-08-03T06:36:47.490Z,23.4
2016-08-03T06:37:46.785Z,23.39
2016-08-03T06:38:46.861Z,23.46
2016-08-03T06:39:47.505Z,23.43
2016-08-03T06:40:48.216Z,23.36
2016-08-03T06:41:47.564Z,23.42
2016-08-03T06:42:48.931Z,23.5
2016-08-03T06:43:47.526Z,23.36
2016-08-03T06:44:48.239Z,23.42
2016-08-03T06:45:46.827Z,23.36
2016-08-03T06:46:47.542Z,23.33
2016-08-03T06:47:47.549Z,23.39
2016-08-03T06:48:47.555Z,23.36
2016-08-03T06:49:46.848Z,23.46
2016-08-03T06:50:48.270Z,23.47
2016-08-03T06:51:48.274Z,23.4
2016-08-03T06:52:48.281Z,23.39
2016-08-03T06:53:49.085Z,23.39
2016-08-03T06:54:47.589Z,23.38
2016-08-03T06:55:47.283Z,23.39
2016-08-03T06:56:48.303Z,23.38
2016-08-03T06:57:47.599Z,23.47
2016-08-03T06:58:47.605Z,23.47
2016-08-03T06:59:48.331Z,23.43
2016-08-03T07:00:47.617Z,23.46
2016-08-03T07:01:48.329Z,23.51
2016-08-03T07:02:47.629Z,23.48
2016-08-03T07:03:47.634Z,23.46
2016-08-03T07:04:49.144Z,23.53
2016-08-03T07:05:47.646Z,23.43
2016-08-03T07:06:48.359Z,23.46
2016-08-03T07:07:46.952Z,23.51
2016-08-03T07:08:47.662Z,23.5
2016-08-03T07:09:48.378Z,23.42
2016-08-03T07:10:47.723Z,23.48
2016-08-03T07:11:47.678Z,23.42
2016-08-03T07:12:46.979Z,23.54
2016-08-03T07:13:47.692Z,23.53
2016-08-03T07:14:47.698Z,23.46
2016-08-03T07:15:48.945Z,23.42
2016-08-03T07:16:47.709Z,23.46
2016-08-03T07:17:47.755Z,23.5
2016-08-03T07:18:48.425Z,23.48
2016-08-03T07:19:47.019Z,23.43
2016-08-03T07:20:47.732Z,23.5
2016-08-03T07:21:48.441Z,23.46
2016-08-03T07:22:47.789Z,23.43
2016-08-03T07:23:47.747Z,23.42
2016-08-03T07:24:47.749Z,23.48
2016-08-03T07:25:47.057Z,23.39
2016-08-03T07:26:49.036Z,23.48
2016-08-03T07:27:47.770Z,23.46
2016-08-03T07:28:48.680Z,23.43
2016-08-03T07:29:47.073Z,23.5
2016-08-03T07:30:47.786Z,23.51
2016-08-03T07:31:48.496Z,23.54
2016-08-03T07:32:47.790Z,23.55
2016-08-03T07:33:47.804Z,23.51
2016-08-03T07:34:48.529Z,23.55
2016-08-03T07:35:48.521Z,23.54
2016-08-03T07:36:47.835Z,23.55
2016-08-03T07:37:47.115Z,23.54
2016-08-03T07:38:47.123Z,23.51
2016-08-03T07:39:48.334Z,23.54
2016-08-03T07:40:48.546Z,23.54
2016-08-03T07:41:47.855Z,23.55
2016-08-03T07:42:48.557Z,23.48
2016-08-03T07:43:48.565Z,23.51
2016-08-03T07:44:48.567Z,23.54
2016-08-03T07:45:48.571Z,23.6
2016-08-03T07:46:47.871Z,23.5
2016-08-03T07:47:47.271Z,23.43
2016-08-03T07:48:47.177Z,23.5
2016-08-03T07:49:48.591Z,23.53
2016-08-03T07:50:47.186Z,23.61
2016-08-03T07:51:47.905Z,23.61
2016-08-03T07:52:47.200Z,23.55
2016-08-03T07:53:48.619Z,23.55
2016-08-03T07:54:47.919Z,23.57
2016-08-03T07:55:47.921Z,23.54
2016-08-03T07:56:47.223Z,23.46
2016-08-03T07:57:48.840Z,23.55
2016-08-03T07:58:48.647Z,23.48
2016-08-03T07:59:47.958Z,23.54
2016-08-03T08:00:47.958Z,23.51
2016-08-03T08:01:48.737Z,23.57
2016-08-03T08:02:47.964Z,23.48
2016-08-03T08:03:47.970Z,23.57
2016-08-03T08:04:47.266Z,23.58
2016-08-03T08:05:48.687Z,23.58
2016-08-03T08:06:47.991Z,23.61
2016-08-03T08:07:47.994Z,23.61
2016-08-03T08:08:49.116Z,23.61
2016-08-03T08:09:48.711Z,23.55
2016-08-03T08:10:48.721Z,23.6
2016-08-03T08:11:48.725Z,23.57
2016-08-03T08:12:49.024Z,23.51
2016-08-03T08:13:48.733Z,23.51
2016-08-03T08:14:48.036Z,23.54
2016-08-03T08:15:48.040Z,23.58
2016-08-03T08:16:47.388Z,23.61
2016-08-03T08:17:48.758Z,23.57
2016-08-03T08:18:48.814Z,23.57
2016-08-03T08:19:48.515Z,23.53
2016-08-03T08:20:48.781Z,23.51
2016-08-03T08:21:50.380Z,23.51
2016-08-03T08:22:48.803Z,23.55
2016-08-03T08:23:47.384Z,23.5
2016-08-03T08:24:47.393Z,23.53
2016-08-03T08:25:48.108Z,23.6
2016-08-03T08:26:47.404Z,23.5
2016-08-03T08:27:47.457Z,23.51
2016-08-03T08:28:48.828Z,23.53
2016-08-03T08:29:48.837Z,23.58
2016-08-03T08:30:49.383Z,23.61
2016-08-03T08:31:48.142Z,23.51
2016-08-03T08:32:48.145Z,23.58
2016-08-03T08:33:48.150Z,23.48
2016-08-03T08:34:47.703Z,23.54
2016-08-03T08:35:47.455Z,23.58
2016-08-03T08:36:48.873Z,23.53
2016-08-03T08:37:47.468Z,23.57
2016-08-03T08:38:48.182Z,23.58
2016-08-03T08:39:48.239Z,23.53
2016-08-03T08:40:48.200Z,23.53
2016-08-03T08:41:49.297Z,23.51
2016-08-03T08:42:48.207Z,23.53
2016-08-03T08:43:48.909Z,23.48
2016-08-03T08:44:48.975Z,23.58
2016-08-03T08:46:48.935Z,23.51
2016-08-03T08:47:48.939Z,23.65
2016-08-03T08:48:48.238Z,23.6
2016-08-03T08:49:48.999Z,23.69
2016-08-03T08:50:48.249Z,23.65
2016-08-03T08:51:48.306Z,23.55
2016-08-03T08:52:48.693Z,23.61
2016-08-03T08:53:48.269Z,23.57
2016-08-03T08:54:49.180Z,23.6
2016-08-03T08:55:48.281Z,23.55
2016-08-03T08:56:48.991Z,23.58
2016-08-03T08:57:48.998Z,23.57
2016-08-03T08:58:48.301Z,23.58
2016-08-03T08:59:48.352Z,23.61
2016-08-03T09:00:48.357Z,23.63
2016-08-03T09:01:49.026Z,23.66
2016-08-03T09:02:48.324Z,23.57
2016-08-03T09:03:49.812Z,23.54
2016-08-03T09:04:48.334Z,23.7
2016-08-03T09:05:48.988Z,23.65
2016-08-03T09:06:48.392Z,23.68
2016-08-03T09:07:48.654Z,23.63
2016-08-03T09:08:49.124Z,23.65
2016-08-03T09:09:49.065Z,23.65
2016-08-03T09:10:48.364Z,23.66
2016-08-03T09:11:49.078Z,23.61
2016-08-03T09:12:49.085Z,23.61
2016-08-03T09:13:49.093Z,23.57
2016-08-03T09:14:48.385Z,23.75
2016-08-03T09:15:49.155Z,23.58
2016-08-03T09:16:49.013Z,23.63
2016-08-03T09:17:48.411Z,23.54
2016-08-03T09:18:48.911Z,23.6
2016-08-03T09:19:47.710Z,23.61
2016-08-03T09:20:48.425Z,23.63
2016-08-03T09:21:48.430Z,23.51
2016-08-03T09:22:48.447Z,23.58
2016-08-03T09:23:48.443Z,23.69
2016-08-03T09:24:49.153Z,23.68
2016-08-03T09:25:49.162Z,23.79
2016-08-03T09:26:49.164Z,23.6
2016-08-03T09:27:47.758Z,23.63
2016-08-03T09:28:48.661Z,23.53
2016-08-03T09:29:49.285Z,23.68
2016-08-03T09:30:48.483Z,23.58
2016-08-03T09:31:48.541Z,23.63
2016-08-03T09:32:48.495Z,23.6
2016-08-03T09:33:49.212Z,23.68
2016-08-03T09:34:49.213Z,23.66
2016-08-03T09:35:48.513Z,23.66
2016-08-03T09:36:49.221Z,23.63
2016-08-03T09:37:48.519Z,23.61
2016-08-03T09:38:47.822Z,23.66
2016-08-03T09:39:49.583Z,23.66
2016-08-03T09:40:49.555Z,23.55
2016-08-03T09:41:49.250Z,23.58
2016-08-03T09:42:49.261Z,23.61
2016-08-03T09:43:47.848Z,23.65
2016-08-03T09:44:49.271Z,23.65
2016-08-03T09:45:48.567Z,23.57
2016-08-03T09:46:49.286Z,23.57
2016-08-03T09:47:48.995Z,23.63
2016-08-03T09:48:48.586Z,23.66
2016-08-03T09:49:48.591Z,23.61
2016-08-03T09:50:47.893Z,23.69
2016-08-03T09:51:47.946Z,23.61
2016-08-03T09:52:48.610Z,23.79
2016-08-03T09:53:49.320Z,23.63
2016-08-03T09:54:49.583Z,23.66
2016-08-03T09:55:48.627Z,23.61
2016-08-03T09:56:48.634Z,23.72
2016-08-03T09:57:48.640Z,23.61
2016-08-03T09:58:49.345Z,23.68
2016-08-03T09:59:49.355Z,23.61
2016-08-03T10:00:48.655Z,23.72
2016-08-03T10:01:47.955Z,23.73
2016-08-03T10:02:50.076Z,23.66
2016-08-03T10:03:49.387Z,23.66
2016-08-03T10:04:49.395Z,23.66
2016-08-03T10:05:48.688Z,23.65
2016-08-03T10:06:47.984Z,23.66
2016-08-03T10:07:47.987Z,23.8
2016-08-03T10:08:48.702Z,23.76
2016-08-03T10:09:49.814Z,23.76
2016-08-03T10:10:48.716Z,23.66
2016-08-03T10:11:48.974Z,23.68
2016-08-03T10:12:48.734Z,23.69
2016-08-03T10:13:48.026Z,23.69
2016-08-03T10:14:49.451Z,23.58
2016-08-03T10:15:49.501Z,23.65
2016-08-03T10:16:49.458Z,23.72
2016-08-03T10:17:49.562Z,23.73
2016-08-03T10:18:49.520Z,23.63
2016-08-03T10:19:49.578Z,23.65
2016-08-03T10:20:49.627Z,23.6
2016-08-03T10:21:49.534Z,23.65
2016-08-03T10:22:49.948Z,23.63
2016-08-03T10:23:49.495Z,23.79
2016-08-03T10:24:48.090Z,23.57
2016-08-03T10:25:49.510Z,23.76
2016-08-03T10:26:49.515Z,23.79
2016-08-03T10:27:49.525Z,23.63
2016-08-03T10:28:48.832Z,23.65
2016-08-03T10:29:48.125Z,23.68
2016-08-03T10:30:48.882Z,23.65
2016-08-03T10:31:49.787Z,23.61
2016-08-03T10:32:48.847Z,23.61
2016-08-03T10:33:49.652Z,23.7
2016-08-03T10:34:48.859Z,23.68
2016-08-03T10:35:48.865Z,23.69
2016-08-03T10:36:48.163Z,23.73
2016-08-03T10:37:48.874Z,23.69
2016-08-03T10:38:49.590Z,23.68
2016-08-03T10:39:48.185Z,23.7
2016-08-03T10:40:48.890Z,23.78
2016-08-03T10:41:48.898Z,23.75
2016-08-03T10:42:50.123Z,23.75
2016-08-03T10:43:49.616Z,23.72
2016-08-03T10:44:49.966Z,23.76
2016-08-03T10:45:48.921Z,23.69
2016-08-03T10:46:48.932Z,23.68
2016-08-03T10:47:48.285Z,23.7
2016-08-03T10:48:49.650Z,23.58
2016-08-03T10:49:48.239Z,23.6
2016-08-03T10:50:49.672Z,23.76
2016-08-03T10:51:48.961Z,23.6
2016-08-03T10:52:49.017Z,23.61
2016-08-03T10:53:48.971Z,23.68
2016-08-03T10:54:49.684Z,23.6
2016-08-03T10:55:49.034Z,23.65
2016-08-03T10:56:48.988Z,23.63
2016-08-03T10:57:48.997Z,23.68
2016-08-03T10:58:49.704Z,23.63
2016-08-03T10:59:49.109Z,23.66
2016-08-03T11:00:49.720Z,23.63
2016-08-03T11:01:49.015Z,23.69
2016-08-03T11:02:49.071Z,23.65
2016-08-03T11:03:49.787Z,23.72
2016-08-03T11:04:49.290Z,23.66
2016-08-03T11:05:49.042Z,23.57
2016-08-03T11:06:49.048Z,23.61
2016-08-03T11:07:49.064Z,23.76
2016-08-03T11:08:49.061Z,23.63
2016-08-03T11:09:48.357Z,23.66
2016-08-03T11:10:48.360Z,23.72
2016-08-03T11:11:49.075Z,23.72
2016-08-03T11:12:48.381Z,23.63
2016-08-03T11:13:49.089Z,23.66
2016-08-03T11:14:49.802Z,23.75
2016-08-03T11:15:49.592Z,23.7
2016-08-03T11:16:49.162Z,23.75
2016-08-03T11:17:49.820Z,23.72
2016-08-03T11:18:49.823Z,23.78
2016-08-03T11:19:49.127Z,23.7
2016-08-03T11:20:49.834Z,23.69
2016-08-03T11:21:49.139Z,23.65
2016-08-03T11:22:49.846Z,23.65
2016-08-03T11:23:49.850Z,23.76
2016-08-03T11:24:49.860Z,23.51
2016-08-03T11:25:49.202Z,23.57
2016-08-03T11:26:50.626Z,23.6
2016-08-03T11:27:49.877Z,23.75
2016-08-03T11:28:49.178Z,23.79
2016-08-03T11:29:49.181Z,23.6
2016-08-03T11:30:49.194Z,23.72
2016-08-03T11:31:49.908Z,23.75
2016-08-03T11:32:49.904Z,23.79
2016-08-03T11:33:49.202Z,23.61
2016-08-03T11:34:49.915Z,23.73
2016-08-03T11:35:48.614Z,23.65
2016-08-03T11:36:48.565Z,23.65
2016-08-03T11:37:50.425Z,23.61
2016-08-03T11:38:49.237Z,23.65
2016-08-03T11:39:49.394Z,23.65
2016-08-03T11:40:49.243Z,23.58
2016-08-03T11:41:48.594Z,23.65
2016-08-03T11:42:49.256Z,23.68
2016-08-03T11:43:49.966Z,23.63
2016-08-03T11:44:49.265Z,23.61
2016-08-03T11:45:49.978Z,23.65
2016-08-03T11:46:48.569Z,23.66
2016-08-03T11:47:50.050Z,23.65
2016-08-03T11:48:48.630Z,23.68
2016-08-03T11:49:48.586Z,23.61
2016-08-03T11:50:49.548Z,23.66
2016-08-03T11:51:50.012Z,23.61
2016-08-03T11:52:49.329Z,23.63
2016-08-03T11:53:50.026Z,23.66
2016-08-03T11:54:49.322Z,23.58
2016-08-03T11:55:48.669Z,23.6
2016-08-03T11:56:49.436Z,23.57
2016-08-03T11:57:49.345Z,23.57
2016-08-03T11:58:49.348Z,23.61
2016-08-03T11:59:51.174Z,23.69
2016-08-03T12:00:50.062Z,23.68
2016-08-03T12:01:50.114Z,23.65
2016-08-03T12:02:48.660Z,23.63
2016-08-03T12:03:49.424Z,23.65
2016-08-03T12:04:50.086Z,23.61
2016-08-03T12:05:49.383Z,23.69
2016-08-03T12:06:49.390Z,23.72
2016-08-03T12:07:49.395Z,23.69
2016-08-03T12:08:48.696Z,23.58
2016-08-03T12:09:49.457Z,23.55
2016-08-03T12:10:49.518Z,23.55
2016-08-03T12:11:49.417Z,23.72
2016-08-03T12:12:48.715Z,23.66
2016-08-03T12:13:48.722Z,23.68
2016-08-03T12:14:49.439Z,23.66
2016-08-03T12:15:49.441Z,23.69
2016-08-03T12:16:49.445Z,23.65
2016-08-03T12:17:49.454Z,23.65
2016-08-03T12:18:48.749Z,23.65
2016-08-03T12:19:49.463Z,23.54
2016-08-03T12:20:49.471Z,23.63
2016-08-03T12:21:49.474Z,23.66
2016-08-03T12:22:49.478Z,23.58
2016-08-03T12:23:49.484Z,23.68
2016-08-03T12:24:49.495Z,23.76
2016-08-03T12:25:48.797Z,23.57
2016-08-03T12:26:49.506Z,23.66
2016-08-03T12:27:49.505Z,23.68
2016-08-03T12:28:50.221Z,23.63
2016-08-03T12:29:49.516Z,23.69
2016-08-03T12:30:50.232Z,23.65
2016-08-03T12:31:50.292Z,23.61
2016-08-03T12:32:49.539Z,23.68
2016-08-03T12:33:48.838Z,23.69
2016-08-03T12:34:51.235Z,23.65
2016-08-03T12:35:49.604Z,23.69
2016-08-03T12:36:50.279Z,23.68
2016-08-03T12:37:50.281Z,23.65
2016-08-03T12:38:50.280Z,23.66
2016-08-03T12:39:49.580Z,23.61
2016-08-03T12:40:50.290Z,23.63
2016-08-03T12:41:50.295Z,23.58
2016-08-03T12:42:49.596Z,23.68
2016-08-03T12:43:50.657Z,23.68
2016-08-03T12:44:49.607Z,23.57
2016-08-03T12:45:50.322Z,23.57
2016-08-03T12:46:49.618Z,23.61
2016-08-03T12:47:49.621Z,23.6
2016-08-03T12:48:48.922Z,23.61
2016-08-03T12:49:49.634Z,23.63
2016-08-03T12:50:50.737Z,23.69
2016-08-03T12:51:49.656Z,23.55
2016-08-03T12:52:49.005Z,23.63
2016-08-03T12:53:50.414Z,23.6
2016-08-03T12:54:50.229Z,23.66
2016-08-03T12:55:49.666Z,23.55
2016-08-03T12:56:50.682Z,23.65
2016-08-03T12:57:49.679Z,23.6
2016-08-03T12:58:50.388Z,23.66
2016-08-03T12:59:49.689Z,23.58